Windy Point, Colorado
Current Conditions -  °F | °C
As of 6:15 PM on Saturday 25 Oct 2014 (Local Time) from KGUC Reporting Station
Clear Clear  
Wind Chill: 64°   Ceiling: Unl
Heat Index: 64°   Visibility: 10mi
Dew Point: 27°   Wind: 7mph
Humidity: 24%   Direction: 250°WSW
Pressure: 30.26"   Gusts: NA
Location:  38.4566°N, 107.296°W
Report Text: KGUC 260015Z AUTO 25006KT 10SM CLR 18/M03 A3026 RMK AO1
Loading
Personal Weather Stations






























Interactive Weather Map
Tropical Storm Tracking
New forecast layout! Learn more

10-Day Weather Forecast

Advertisements
Track Severe Weather on mobile